sensor_id;sensor_type;location;lat;lon;timestamp;P1;durP1;ratioP1;P2;durP2;ratioP2
11006;SDS011;8186;57.652;11.968;2023-04-30T00:02:07;2.93;;;1.50;;
11006;SDS011;8186;57.652;11.968;2023-04-30T00:04:34;4.57;;;1.27;;
11006;SDS011;8186;57.652;11.968;2023-04-30T00:07:01;5.00;;;1.43;;
11006;SDS011;8186;57.652;11.968;2023-04-30T00:09:30;3.03;;;1.87;;
11006;SDS011;8186;57.652;11.968;2023-04-30T00:11:57;3.37;;;1.40;;
11006;SDS011;8186;57.652;11.968;2023-04-30T00:14:23;3.10;;;1.17;;
11006;SDS011;8186;57.652;11.968;2023-04-30T00:16:50;3.23;;;1.60;;
11006;SDS011;8186;57.652;11.968;2023-04-30T00:19:17;2.93;;;1.73;;
11006;SDS011;8186;57.652;11.968;2023-04-30T00:21:44;5.03;;;1.30;;
11006;SDS011;8186;57.652;11.968;2023-04-30T00:24:11;4.10;;;1.60;;
11006;SDS011;8186;57.652;11.968;2023-04-30T00:26:40;1.93;;;1.20;;
11006;SDS011;8186;57.652;11.968;2023-04-30T00:29:08;2.73;;;1.53;;
11006;SDS011;8186;57.652;11.968;2023-04-30T00:31:35;2.97;;;1.50;;
11006;SDS011;8186;57.652;11.968;2023-04-30T00:34:01;4.13;;;1.77;;
11006;SDS011;8186;57.652;11.968;2023-04-30T00:36:28;2.60;;;1.37;;
11006;SDS011;8186;57.652;11.968;2023-04-30T00:38:56;2.20;;;1.47;;
11006;SDS011;8186;57.652;11.968;2023-04-30T00:41:23;2.07;;;1.37;;
11006;SDS011;8186;57.652;11.968;2023-04-30T00:43:52;5.53;;;1.97;;
11006;SDS011;8186;57.652;11.968;2023-04-30T00:46:19;5.30;;;1.67;;
11006;SDS011;8186;57.652;11.968;2023-04-30T00:48:46;3.93;;;1.60;;
11006;SDS011;8186;57.652;11.968;2023-04-30T00:51:13;5.73;;;1.60;;
11006;SDS011;8186;57.652;11.968;2023-04-30T00:53:39;3.40;;;1.57;;
11006;SDS011;8186;57.652;11.968;2023-04-30T00:56:07;3.40;;;1.60;;
11006;SDS011;8186;57.652;11.968;2023-04-30T00:58:35;2.97;;;1.80;;
11006;SDS011;8186;57.652;11.968;2023-04-30T01:01:03;3.33;;;1.47;;
11006;SDS011;8186;57.652;11.968;2023-04-30T01:03:31;4.77;;;1.87;;
11006;SDS011;8186;57.652;11.968;2023-04-30T01:06:00;3.90;;;1.50;;
11006;SDS011;8186;57.652;11.968;2023-04-30T01:08:27;3.20;;;1.43;;
11006;SDS011;8186;57.652;11.968;2023-04-30T01:10:57;3.43;;;1.27;;
11006;SDS011;8186;57.652;11.968;2023-04-30T01:13:33;2.37;;;1.50;;
11006;SDS011;8186;57.652;11.968;2023-04-30T01:16:06;2.47;;;1.60;;
11006;SDS011;8186;57.652;11.968;2023-04-30T01:18:38;1.57;;;1.23;;
11006;SDS011;8186;57.652;11.968;2023-04-30T01:21:09;5.80;;;1.60;;
11006;SDS011;8186;57.652;11.968;2023-04-30T01:23:41;4.63;;;1.60;;
11006;SDS011;8186;57.652;11.968;2023-04-30T01:26:18;4.80;;;1.50;;
11006;SDS011;8186;57.652;11.968;2023-04-30T01:28:50;3.93;;;1.50;;
11006;SDS011;8186;57.652;11.968;2023-04-30T01:31:18;5.73;;;1.20;;
11006;SDS011;8186;57.652;11.968;2023-04-30T01:33:45;3.87;;;1.40;;
11006;SDS011;8186;57.652;11.968;2023-04-30T01:36:17;4.17;;;1.50;;
11006;SDS011;8186;57.652;11.968;2023-04-30T01:39:01;5.20;;;1.50;;
11006;SDS011;8186;57.652;11.968;2023-04-30T01:41:36;4.67;;;1.40;;
11006;SDS011;8186;57.652;11.968;2023-04-30T01:44:14;4.90;;;1.40;;
11006;SDS011;8186;57.652;11.968;2023-04-30T01:46:50;4.57;;;1.50;;
11006;SDS011;8186;57.652;11.968;2023-04-30T01:49:36;3.53;;;1.33;;
11006;SDS011;8186;57.652;11.968;2023-04-30T01:52:11;2.30;;;1.10;;
11006;SDS011;8186;57.652;11.968;2023-04-30T01:54:44;3.07;;;1.40;;
11006;SDS011;8186;57.652;11.968;2023-04-30T01:57:12;6.50;;;1.80;;
11006;SDS011;8186;57.652;11.968;2023-04-30T01:59:44;3.23;;;1.50;;
11006;SDS011;8186;57.652;11.968;2023-04-30T02:02:12;3.77;;;2.07;;
11006;SDS011;8186;57.652;11.968;2023-04-30T02:04:39;2.57;;;1.43;;
11006;SDS011;8186;57.652;11.968;2023-04-30T02:07:06;3.87;;;1.60;;
11006;SDS011;8186;57.652;11.968;2023-04-30T02:09:33;2.73;;;1.60;;
11006;SDS011;8186;57.652;11.968;2023-04-30T02:12:00;4.10;;;1.60;;
11006;SDS011;8186;57.652;11.968;2023-04-30T02:14:27;2.73;;;1.30;;
11006;SDS011;8186;57.652;11.968;2023-04-30T02:16:56;4.23;;;1.07;;
11006;SDS011;8186;57.652;11.968;2023-04-30T02:19:23;3.07;;;1.53;;
11006;SDS011;8186;57.652;11.968;2023-04-30T02:21:50;5.63;;;1.47;;
11006;SDS011;8186;57.652;11.968;2023-04-30T02:24:16;4.40;;;1.40;;
11006;SDS011;8186;57.652;11.968;2023-04-30T02:26:43;5.00;;;1.57;;
11006;SDS011;8186;57.652;11.968;2023-04-30T02:29:10;3.00;;;1.20;;
11006;SDS011;8186;57.652;11.968;2023-04-30T02:31:37;4.67;;;1.87;;
11006;SDS011;8186;57.652;11.968;2023-04-30T02:34:05;6.90;;;1.30;;
11006;SDS011;8186;57.652;11.968;2023-04-30T02:36:32;4.10;;;1.30;;
11006;SDS011;8186;57.652;11.968;2023-04-30T02:39:00;2.73;;;1.10;;
11006;SDS011;8186;57.652;11.968;2023-04-30T02:41:27;2.53;;;1.27;;
11006;SDS011;8186;57.652;11.968;2023-04-30T02:43:54;4.63;;;1.23;;
11006;SDS011;8186;57.652;11.968;2023-04-30T02:46:21;7.33;;;1.67;;
11006;SDS011;8186;57.652;11.968;2023-04-30T02:48:48;2.40;;;1.23;;
11006;SDS011;8186;57.652;11.968;2023-04-30T02:51:17;3.43;;;1.40;;
11006;SDS011;8186;57.652;11.968;2023-04-30T02:53:43;1.83;;;0.90;;
11006;SDS011;8186;57.652;11.968;2023-04-30T02:56:10;2.13;;;1.23;;
11006;SDS011;8186;57.652;11.968;2023-04-30T02:58:37;5.67;;;1.40;;
11006;SDS011;8186;57.652;11.968;2023-04-30T03:01:05;2.80;;;1.10;;
11006;SDS011;8186;57.652;11.968;2023-04-30T03:03:32;2.63;;;1.40;;
11006;SDS011;8186;57.652;11.968;2023-04-30T03:05:59;3.23;;;1.13;;
11006;SDS011;8186;57.652;11.968;2023-04-30T03:08:27;3.77;;;1.43;;
11006;SDS011;8186;57.652;11.968;2023-04-30T03:10:54;2.60;;;1.53;;
11006;SDS011;8186;57.652;11.968;2023-04-30T03:13:21;2.90;;;1.10;;
11006;SDS011;8186;57.652;11.968;2023-04-30T03:15:55;4.33;;;1.33;;
11006;SDS011;8186;57.652;11.968;2023-04-30T03:18:22;7.27;;;1.63;;
11006;SDS011;8186;57.652;11.968;2023-04-30T03:20:49;3.23;;;1.10;;
11006;SDS011;8186;57.652;11.968;2023-04-30T03:23:16;2.50;;;1.10;;
11006;SDS011;8186;57.652;11.968;2023-04-30T03:25:44;3.50;;;1.13;;
11006;SDS011;8186;57.652;11.968;2023-04-30T03:28:11;2.10;;;1.03;;
11006;SDS011;8186;57.652;11.968;2023-04-30T03:30:39;1.37;;;0.90;;
11006;SDS011;8186;57.652;11.968;2023-04-30T03:33:06;4.10;;;1.17;;
11006;SDS011;8186;57.652;11.968;2023-04-30T03:35:33;3.70;;;1.27;;
11006;SDS011;8186;57.652;11.968;2023-04-30T03:38:00;3.23;;;1.07;;
11006;SDS011;8186;57.652;11.968;2023-04-30T03:40:27;3.13;;;1.20;;
11006;SDS011;8186;57.652;11.968;2023-04-30T03:42:55;3.47;;;1.10;;
11006;SDS011;8186;57.652;11.968;2023-04-30T03:45:22;1.73;;;1.30;;
11006;SDS011;8186;57.652;11.968;2023-04-30T03:47:49;3.33;;;1.17;;
11006;SDS011;8186;57.652;11.968;2023-04-30T03:50:16;3.40;;;1.30;;
11006;SDS011;8186;57.652;11.968;2023-04-30T03:52:44;2.87;;;1.30;;
11006;SDS011;8186;57.652;11.968;2023-04-30T03:55:11;3.50;;;1.20;;
11006;SDS011;8186;57.652;11.968;2023-04-30T03:57:38;1.97;;;1.10;;
11006;SDS011;8186;57.652;11.968;2023-04-30T04:00:07;1.90;;;1.00;;
11006;SDS011;8186;57.652;11.968;2023-04-30T04:02:35;2.80;;;0.97;;
11006;SDS011;8186;57.652;11.968;2023-04-30T04:05:02;3.63;;;1.13;;
11006;SDS011;8186;57.652;11.968;2023-04-30T04:07:30;3.53;;;1.20;;
11006;SDS011;8186;57.652;11.968;2023-04-30T04:09:57;1.30;;;0.90;;
11006;SDS011;8186;57.652;11.968;2023-04-30T04:12:26;1.93;;;0.90;;
11006;SDS011;8186;57.652;11.968;2023-04-30T04:14:53;3.90;;;1.10;;
11006;SDS011;8186;57.652;11.968;2023-04-30T04:17:22;4.27;;;0.90;;
11006;SDS011;8186;57.652;11.968;2023-04-30T04:19:49;2.43;;;1.20;;
11006;SDS011;8186;57.652;11.968;2023-04-30T04:22:16;2.30;;;1.17;;
11006;SDS011;8186;57.652;11.968;2023-04-30T04:24:43;2.10;;;1.13;;
11006;SDS011;8186;57.652;11.968;2023-04-30T04:27:12;2.20;;;1.00;;
11006;SDS011;8186;57.652;11.968;2023-04-30T04:29:38;3.43;;;1.30;;
11006;SDS011;8186;57.652;11.968;2023-04-30T04:32:05;2.20;;;0.97;;
11006;SDS011;8186;57.652;11.968;2023-04-30T04:34:35;2.83;;;1.13;;
11006;SDS011;8186;57.652;11.968;2023-04-30T04:37:03;3.33;;;1.27;;
11006;SDS011;8186;57.652;11.968;2023-04-30T04:39:30;3.87;;;1.00;;
11006;SDS011;8186;57.652;11.968;2023-04-30T04:41:57;1.90;;;1.07;;
11006;SDS011;8186;57.652;11.968;2023-04-30T04:44:24;2.83;;;1.20;;
11006;SDS011;8186;57.652;11.968;2023-04-30T04:46:51;1.47;;;0.90;;
11006;SDS011;8186;57.652;11.968;2023-04-30T04:49:18;2.40;;;1.00;;
11006;SDS011;8186;57.652;11.968;2023-04-30T04:51:46;2.23;;;1.00;;
11006;SDS011;8186;57.652;11.968;2023-04-30T04:54:13;2.77;;;1.07;;
11006;SDS011;8186;57.652;11.968;2023-04-30T04:56:40;2.87;;;1.27;;
11006;SDS011;8186;57.652;11.968;2023-04-30T04:59:07;1.10;;;0.87;;
11006;SDS011;8186;57.652;11.968;2023-04-30T05:01:34;2.67;;;0.80;;
11006;SDS011;8186;57.652;11.968;2023-04-30T05:04:01;2.83;;;1.10;;
11006;SDS011;8186;57.652;11.968;2023-04-30T05:06:27;2.17;;;0.90;;
11006;SDS011;8186;57.652;11.968;2023-04-30T05:08:56;4.10;;;1.13;;
11006;SDS011;8186;57.652;11.968;2023-04-30T05:11:23;3.40;;;1.27;;
11006;SDS011;8186;57.652;11.968;2023-04-30T05:13:50;3.33;;;1.10;;
11006;SDS011;8186;57.652;11.968;2023-04-30T05:16:17;2.10;;;1.00;;
11006;SDS011;8186;57.652;11.968;2023-04-30T05:18:44;2.43;;;1.13;;
11006;SDS011;8186;57.652;11.968;2023-04-30T05:21:10;3.80;;;0.90;;
11006;SDS011;8186;57.652;11.968;2023-04-30T05:23:37;3.07;;;1.23;;
11006;SDS011;8186;57.652;11.968;2023-04-30T05:26:06;3.57;;;1.00;;
11006;SDS011;8186;57.652;11.968;2023-04-30T05:28:32;1.10;;;1.00;;
11006;SDS011;8186;57.652;11.968;2023-04-30T05:30:59;1.80;;;0.87;;
11006;SDS011;8186;57.652;11.968;2023-04-30T05:33:26;1.47;;;0.80;;
11006;SDS011;8186;57.652;11.968;2023-04-30T05:35:53;3.87;;;0.93;;
11006;SDS011;8186;57.652;11.968;2023-04-30T05:38:20;2.60;;;0.80;;
11006;SDS011;8186;57.652;11.968;2023-04-30T05:40:47;0.90;;;0.70;;
11006;SDS011;8186;57.652;11.968;2023-04-30T05:43:15;1.57;;;0.80;;
11006;SDS011;8186;57.652;11.968;2023-04-30T05:45:42;1.60;;;0.70;;
11006;SDS011;8186;57.652;11.968;2023-04-30T05:48:09;4.13;;;1.10;;
11006;SDS011;8186;57.652;11.968;2023-04-30T05:50:36;2.83;;;0.90;;
11006;SDS011;8186;57.652;11.968;2023-04-30T05:53:03;3.27;;;0.93;;
11006;SDS011;8186;57.652;11.968;2023-04-30T05:55:30;2.27;;;0.90;;
11006;SDS011;8186;57.652;11.968;2023-04-30T05:57:57;1.47;;;0.90;;
11006;SDS011;8186;57.652;11.968;2023-04-30T06:00:25;2.10;;;0.90;;
11006;SDS011;8186;57.652;11.968;2023-04-30T06:02:52;2.73;;;0.97;;
11006;SDS011;8186;57.652;11.968;2023-04-30T06:05:19;2.70;;;1.00;;
11006;SDS011;8186;57.652;11.968;2023-04-30T06:07:46;3.80;;;0.90;;
11006;SDS011;8186;57.652;11.968;2023-04-30T06:10:13;1.97;;;1.17;;
11006;SDS011;8186;57.652;11.968;2023-04-30T06:12:40;2.93;;;1.00;;
11006;SDS011;8186;57.652;11.968;2023-04-30T06:15:07;3.47;;;0.93;;
11006;SDS011;8186;57.652;11.968;2023-04-30T06:17:36;3.47;;;1.10;;
11006;SDS011;8186;57.652;11.968;2023-04-30T06:20:03;2.43;;;0.90;;
11006;SDS011;8186;57.652;11.968;2023-04-30T06:22:31;2.60;;;0.80;;
11006;SDS011;8186;57.652;11.968;2023-04-30T06:24:58;1.10;;;0.80;;
11006;SDS011;8186;57.652;11.968;2023-04-30T06:27:25;4.30;;;1.07;;
11006;SDS011;8186;57.652;11.968;2023-04-30T06:29:53;4.07;;;1.03;;
11006;SDS011;8186;57.652;11.968;2023-04-30T06:32:20;2.20;;;1.20;;
11006;SDS011;8186;57.652;11.968;2023-04-30T06:34:48;2.23;;;1.00;;
11006;SDS011;8186;57.652;11.968;2023-04-30T06:37:15;3.47;;;0.83;;
11006;SDS011;8186;57.652;11.968;2023-04-30T06:39:43;3.33;;;1.00;;
11006;SDS011;8186;57.652;11.968;2023-04-30T06:42:09;3.17;;;1.00;;
11006;SDS011;8186;57.652;11.968;2023-04-30T06:44:36;2.97;;;1.27;;
11006;SDS011;8186;57.652;11.968;2023-04-30T06:47:03;2.87;;;1.20;;
11006;SDS011;8186;57.652;11.968;2023-04-30T06:49:30;4.70;;;1.03;;
11006;SDS011;8186;57.652;11.968;2023-04-30T06:51:59;1.73;;;1.00;;
11006;SDS011;8186;57.652;11.968;2023-04-30T06:54:25;2.23;;;0.90;;
11006;SDS011;8186;57.652;11.968;2023-04-30T06:56:52;3.23;;;1.07;;
11006;SDS011;8186;57.652;11.968;2023-04-30T06:59:19;4.40;;;1.10;;
11006;SDS011;8186;57.652;11.968;2023-04-30T07:01:46;4.93;;;1.10;;
11006;SDS011;8186;57.652;11.968;2023-04-30T07:04:13;4.33;;;1.30;;
11006;SDS011;8186;57.652;11.968;2023-04-30T07:06:40;3.53;;;1.10;;
11006;SDS011;8186;57.652;11.968;2023-04-30T07:09:09;2.37;;;1.00;;
11006;SDS011;8186;57.652;11.968;2023-04-30T07:11:37;1.53;;;1.00;;
11006;SDS011;8186;57.652;11.968;2023-04-30T07:14:04;2.03;;;0.93;;
11006;SDS011;8186;57.652;11.968;2023-04-30T07:16:31;2.50;;;1.00;;
11006;SDS011;8186;57.652;11.968;2023-04-30T07:18:58;1.63;;;1.10;;
11006;SDS011;8186;57.652;11.968;2023-04-30T07:21:25;3.83;;;1.10;;
11006;SDS011;8186;57.652;11.968;2023-04-30T07:23:52;1.90;;;0.90;;
11006;SDS011;8186;57.652;11.968;2023-04-30T07:26:20;2.27;;;0.93;;
11006;SDS011;8186;57.652;11.968;2023-04-30T07:28:49;4.57;;;1.10;;
11006;SDS011;8186;57.652;11.968;2023-04-30T07:31:16;3.10;;;1.00;;
11006;SDS011;8186;57.652;11.968;2023-04-30T07:33:43;1.23;;;0.90;;
11006;SDS011;8186;57.652;11.968;2023-04-30T07:36:10;3.70;;;1.13;;
11006;SDS011;8186;57.652;11.968;2023-04-30T07:38:38;2.40;;;0.90;;
11006;SDS011;8186;57.652;11.968;2023-04-30T07:41:04;2.23;;;1.10;;
11006;SDS011;8186;57.652;11.968;2023-04-30T07:43:34;4.67;;;1.53;;
11006;SDS011;8186;57.652;11.968;2023-04-30T07:46:01;1.83;;;0.83;;
11006;SDS011;8186;57.652;11.968;2023-04-30T07:48:28;3.40;;;1.00;;
11006;SDS011;8186;57.652;11.968;2023-04-30T07:50:55;4.07;;;1.17;;
11006;SDS011;8186;57.652;11.968;2023-04-30T07:53:22;4.10;;;0.90;;
11006;SDS011;8186;57.652;11.968;2023-04-30T07:55:49;1.37;;;1.00;;
11006;SDS011;8186;57.652;11.968;2023-04-30T07:58:16;4.83;;;1.20;;
11006;SDS011;8186;57.652;11.968;2023-04-30T08:00:45;3.73;;;0.97;;
11006;SDS011;8186;57.652;11.968;2023-04-30T08:03:12;4.00;;;1.07;;
11006;SDS011;8186;57.652;11.968;2023-04-30T08:05:38;2.67;;;0.90;;
11006;SDS011;8186;57.652;11.968;2023-04-30T08:08:05;3.63;;;1.07;;
11006;SDS011;8186;57.652;11.968;2023-04-30T08:10:33;2.03;;;0.90;;
11006;SDS011;8186;57.652;11.968;2023-04-30T08:13:02;2.50;;;1.03;;
11006;SDS011;8186;57.652;11.968;2023-04-30T08:15:29;1.90;;;0.93;;
11006;SDS011;8186;57.652;11.968;2023-04-30T08:17:58;2.80;;;1.27;;
11006;SDS011;8186;57.652;11.968;2023-04-30T08:20:25;2.37;;;1.10;;
11006;SDS011;8186;57.652;11.968;2023-04-30T08:22:52;2.47;;;0.97;;
11006;SDS011;8186;57.652;11.968;2023-04-30T08:25:19;3.00;;;1.30;;
11006;SDS011;8186;57.652;11.968;2023-04-30T08:27:46;2.23;;;1.07;;
11006;SDS011;8186;57.652;11.968;2023-04-30T08:30:13;3.00;;;0.90;;
11006;SDS011;8186;57.652;11.968;2023-04-30T08:32:40;3.73;;;1.10;;
11006;SDS011;8186;57.652;11.968;2023-04-30T08:35:09;2.67;;;1.00;;
11006;SDS011;8186;57.652;11.968;2023-04-30T08:37:36;2.47;;;1.03;;
11006;SDS011;8186;57.652;11.968;2023-04-30T08:40:03;4.63;;;1.00;;
11006;SDS011;8186;57.652;11.968;2023-04-30T08:42:35;3.07;;;1.13;;
11006;SDS011;8186;57.652;11.968;2023-04-30T08:45:03;4.13;;;0.90;;
11006;SDS011;8186;57.652;11.968;2023-04-30T08:47:31;1.93;;;1.00;;
11006;SDS011;8186;57.652;11.968;2023-04-30T08:49:58;1.40;;;0.90;;
11006;SDS011;8186;57.652;11.968;2023-04-30T08:52:26;3.30;;;0.90;;
11006;SDS011;8186;57.652;11.968;2023-04-30T08:54:55;2.23;;;0.90;;
11006;SDS011;8186;57.652;11.968;2023-04-30T08:57:23;1.90;;;0.73;;
11006;SDS011;8186;57.652;11.968;2023-04-30T08:59:50;1.27;;;0.70;;
11006;SDS011;8186;57.652;11.968;2023-04-30T09:02:17;1.40;;;0.97;;
11006;SDS011;8186;57.652;11.968;2023-04-30T09:04:44;2.43;;;0.90;;
11006;SDS011;8186;57.652;11.968;2023-04-30T09:07:12;2.13;;;1.00;;
11006;SDS011;8186;57.652;11.968;2023-04-30T09:09:40;1.37;;;0.83;;
11006;SDS011;8186;57.652;11.968;2023-04-30T09:12:11;2.43;;;0.83;;
11006;SDS011;8186;57.652;11.968;2023-04-30T09:14:39;4.00;;;0.90;;
11006;SDS011;8186;57.652;11.968;2023-04-30T09:17:07;3.07;;;0.97;;
11006;SDS011;8186;57.652;11.968;2023-04-30T09:19:34;1.67;;;0.90;;
11006;SDS011;8186;57.652;11.968;2023-04-30T09:24:53;2.30;;;0.93;;
11006;SDS011;8186;57.652;11.968;2023-04-30T09:27:20;2.80;;;0.87;;
11006;SDS011;8186;57.652;11.968;2023-04-30T09:29:48;3.57;;;1.10;;
11006;SDS011;8186;57.652;11.968;2023-04-30T09:32:15;3.07;;;0.93;;
11006;SDS011;8186;57.652;11.968;2023-04-30T09:34:42;3.63;;;1.00;;
11006;SDS011;8186;57.652;11.968;2023-04-30T09:37:09;2.80;;;0.90;;
11006;SDS011;8186;57.652;11.968;2023-04-30T09:39:46;1.53;;;0.90;;
11006;SDS011;8186;57.652;11.968;2023-04-30T09:42:16;3.50;;;1.07;;
11006;SDS011;8186;57.652;11.968;2023-04-30T09:44:44;3.87;;;1.00;;
11006;SDS011;8186;57.652;11.968;2023-04-30T09:47:11;2.57;;;0.90;;
11006;SDS011;8186;57.652;11.968;2023-04-30T09:49:40;2.20;;;1.00;;
11006;SDS011;8186;57.652;11.968;2023-04-30T09:52:08;2.00;;;0.90;;
11006;SDS011;8186;57.652;11.968;2023-04-30T09:54:35;3.33;;;0.97;;
11006;SDS011;8186;57.652;11.968;2023-04-30T09:57:02;2.57;;;0.70;;
11006;SDS011;8186;57.652;11.968;2023-04-30T09:59:32;2.90;;;0.90;;
11006;SDS011;8186;57.652;11.968;2023-04-30T10:02:02;3.40;;;1.10;;
11006;SDS011;8186;57.652;11.968;2023-04-30T10:04:32;4.07;;;1.03;;
11006;SDS011;8186;57.652;11.968;2023-04-30T10:07:01;2.60;;;0.87;;
11006;SDS011;8186;57.652;11.968;2023-04-30T10:09:32;1.63;;;1.03;;
11006;SDS011;8186;57.652;11.968;2023-04-30T10:12:02;7.27;;;1.40;;
11006;SDS011;8186;57.652;11.968;2023-04-30T10:14:31;4.73;;;1.10;;
11006;SDS011;8186;57.652;11.968;2023-04-30T10:17:01;5.27;;;1.20;;
11006;SDS011;8186;57.652;11.968;2023-04-30T10:19:32;1.70;;;0.87;;
11006;SDS011;8186;57.652;11.968;2023-04-30T10:22:02;3.80;;;1.40;;
11006;SDS011;8186;57.652;11.968;2023-04-30T10:24:29;3.73;;;1.40;;
11006;SDS011;8186;57.652;11.968;2023-04-30T10:26:57;3.47;;;1.10;;
11006;SDS011;8186;57.652;11.968;2023-04-30T10:29:24;2.37;;;0.80;;
11006;SDS011;8186;57.652;11.968;2023-04-30T10:31:52;1.90;;;1.07;;
11006;SDS011;8186;57.652;11.968;2023-04-30T10:34:21;1.60;;;0.87;;
11006;SDS011;8186;57.652;11.968;2023-04-30T10:36:55;3.40;;;1.00;;
11006;SDS011;8186;57.652;11.968;2023-04-30T10:39:24;3.17;;;1.20;;
11006;SDS011;8186;57.652;11.968;2023-04-30T10:41:59;3.00;;;1.10;;
11006;SDS011;8186;57.652;11.968;2023-04-30T10:44:28;4.63;;;1.40;;
11006;SDS011;8186;57.652;11.968;2023-04-30T10:46:59;3.77;;;1.20;;
11006;SDS011;8186;57.652;11.968;2023-04-30T10:49:27;6.23;;;1.17;;
11006;SDS011;8186;57.652;11.968;2023-04-30T10:51:56;2.83;;;1.23;;
11006;SDS011;8186;57.652;11.968;2023-04-30T10:54:25;3.53;;;1.10;;
11006;SDS011;8186;57.652;11.968;2023-04-30T10:56:53;2.47;;;1.33;;
11006;SDS011;8186;57.652;11.968;2023-04-30T10:59:22;4.17;;;1.40;;
11006;SDS011;8186;57.652;11.968;2023-04-30T11:01:53;1.20;;;1.00;;
11006;SDS011;8186;57.652;11.968;2023-04-30T11:04:22;3.80;;;1.30;;
11006;SDS011;8186;57.652;11.968;2023-04-30T11:06:53;5.63;;;1.33;;
11006;SDS011;8186;57.652;11.968;2023-04-30T11:09:23;1.97;;;1.00;;
11006;SDS011;8186;57.652;11.968;2023-04-30T11:12:01;4.97;;;1.20;;
11006;SDS011;8186;57.652;11.968;2023-04-30T11:14:30;1.63;;;1.07;;
11006;SDS011;8186;57.652;11.968;2023-04-30T11:16:58;4.13;;;1.20;;
11006;SDS011;8186;57.652;11.968;2023-04-30T11:19:27;4.33;;;1.27;;
11006;SDS011;8186;57.652;11.968;2023-04-30T11:25:01;1.73;;;0.93;;
11006;SDS011;8186;57.652;11.968;2023-04-30T11:27:30;3.67;;;1.47;;
11006;SDS011;8186;57.652;11.968;2023-04-30T11:29:58;4.50;;;1.43;;
11006;SDS011;8186;57.652;11.968;2023-04-30T11:32:26;3.50;;;1.40;;
11006;SDS011;8186;57.652;11.968;2023-04-30T11:34:59;2.87;;;0.97;;
11006;SDS011;8186;57.652;11.968;2023-04-30T11:37:31;3.53;;;1.20;;
11006;SDS011;8186;57.652;11.968;2023-04-30T11:40:00;3.63;;;1.40;;
11006;SDS011;8186;57.652;11.968;2023-04-30T11:42:28;5.37;;;1.00;;
11006;SDS011;8186;57.652;11.968;2023-04-30T11:45:02;4.47;;;1.00;;
11006;SDS011;8186;57.652;11.968;2023-04-30T11:47:40;2.20;;;1.00;;
11006;SDS011;8186;57.652;11.968;2023-04-30T11:50:10;6.57;;;1.33;;
11006;SDS011;8186;57.652;11.968;2023-04-30T11:52:38;3.33;;;0.97;;
11006;SDS011;8186;57.652;11.968;2023-04-30T11:55:06;5.07;;;1.40;;
11006;SDS011;8186;57.652;11.968;2023-04-30T11:57:38;2.43;;;1.07;;
11006;SDS011;8186;57.652;11.968;2023-04-30T12:00:06;2.33;;;1.00;;
11006;SDS011;8186;57.652;11.968;2023-04-30T12:02:38;3.60;;;1.23;;
11006;SDS011;8186;57.652;11.968;2023-04-30T12:05:12;2.63;;;0.97;;
11006;SDS011;8186;57.652;11.968;2023-04-30T12:07:45;5.03;;;1.40;;
11006;SDS011;8186;57.652;11.968;2023-04-30T12:10:13;3.07;;;1.27;;
11006;SDS011;8186;57.652;11.968;2023-04-30T12:12:41;4.33;;;1.13;;
11006;SDS011;8186;57.652;11.968;2023-04-30T12:15:14;2.90;;;1.10;;
11006;SDS011;8186;57.652;11.968;2023-04-30T12:17:42;3.63;;;1.57;;
11006;SDS011;8186;57.652;11.968;2023-04-30T12:20:12;4.73;;;1.47;;
11006;SDS011;8186;57.652;11.968;2023-04-30T12:22:40;3.43;;;1.27;;
11006;SDS011;8186;57.652;11.968;2023-04-30T12:25:10;4.00;;;1.67;;
11006;SDS011;8186;57.652;11.968;2023-04-30T12:27:38;3.77;;;1.80;;
11006;SDS011;8186;57.652;11.968;2023-04-30T12:30:06;4.67;;;1.40;;
11006;SDS011;8186;57.652;11.968;2023-04-30T12:32:38;3.33;;;1.37;;
11006;SDS011;8186;57.652;11.968;2023-04-30T12:35:13;5.10;;;1.10;;
11006;SDS011;8186;57.652;11.968;2023-04-30T12:37:41;3.30;;;1.47;;
11006;SDS011;8186;57.652;11.968;2023-04-30T12:40:10;4.97;;;1.30;;
11006;SDS011;8186;57.652;11.968;2023-04-30T12:42:38;4.53;;;1.13;;
11006;SDS011;8186;57.652;11.968;2023-04-30T12:45:05;2.83;;;1.10;;
11006;SDS011;8186;57.652;11.968;2023-04-30T12:47:36;7.03;;;1.30;;
11006;SDS011;8186;57.652;11.968;2023-04-30T12:50:06;3.10;;;1.00;;
11006;SDS011;8186;57.652;11.968;2023-04-30T12:52:36;2.67;;;1.17;;
11006;SDS011;8186;57.652;11.968;2023-04-30T12:55:16;5.60;;;1.10;;
11006;SDS011;8186;57.652;11.968;2023-04-30T13:00:47;3.37;;;1.23;;
11006;SDS011;8186;57.652;11.968;2023-04-30T13:03:15;2.53;;;1.13;;
11006;SDS011;8186;57.652;11.968;2023-04-30T13:05:45;3.43;;;1.40;;
11006;SDS011;8186;57.652;11.968;2023-04-30T13:08:15;1.83;;;1.30;;
11006;SDS011;8186;57.652;11.968;2023-04-30T13:10:42;5.33;;;1.73;;
11006;SDS011;8186;57.652;11.968;2023-04-30T13:13:09;4.60;;;1.30;;
11006;SDS011;8186;57.652;11.968;2023-04-30T13:15:37;4.03;;;1.63;;
11006;SDS011;8186;57.652;11.968;2023-04-30T13:18:04;5.22;;;2.10;;
11006;SDS011;8186;57.652;11.968;2023-04-30T13:20:32;4.53;;;1.37;;
11006;SDS011;8186;57.652;11.968;2023-04-30T13:23:00;3.70;;;1.30;;
11006;SDS011;8186;57.652;11.968;2023-04-30T13:25:28;3.07;;;1.30;;
11006;SDS011;8186;57.652;11.968;2023-04-30T13:27:55;5.17;;;1.57;;
11006;SDS011;8186;57.652;11.968;2023-04-30T13:30:22;3.73;;;1.40;;
11006;SDS011;8186;57.652;11.968;2023-04-30T13:32:49;2.67;;;1.17;;
11006;SDS011;8186;57.652;11.968;2023-04-30T13:35:16;5.20;;;1.37;;
11006;SDS011;8186;57.652;11.968;2023-04-30T13:37:43;7.40;;;1.97;;
11006;SDS011;8186;57.652;11.968;2023-04-30T13:40:12;2.37;;;1.23;;
11006;SDS011;8186;57.652;11.968;2023-04-30T13:42:40;3.60;;;1.30;;
11006;SDS011;8186;57.652;11.968;2023-04-30T13:45:08;4.70;;;1.93;;
11006;SDS011;8186;57.652;11.968;2023-04-30T13:47:35;4.07;;;2.40;;
11006;SDS011;8186;57.652;11.968;2023-04-30T13:50:03;4.67;;;2.03;;
11006;SDS011;8186;57.652;11.968;2023-04-30T13:52:32;5.13;;;2.40;;
11006;SDS011;8186;57.652;11.968;2023-04-30T13:55:00;5.53;;;1.60;;
11006;SDS011;8186;57.652;11.968;2023-04-30T13:57:27;5.20;;;1.60;;
11006;SDS011;8186;57.652;11.968;2023-04-30T13:59:58;4.47;;;1.77;;
11006;SDS011;8186;57.652;11.968;2023-04-30T14:02:26;5.47;;;1.10;;
11006;SDS011;8186;57.652;11.968;2023-04-30T14:04:53;4.60;;;1.37;;
11006;SDS011;8186;57.652;11.968;2023-04-30T14:07:20;2.73;;;1.40;;
11006;SDS011;8186;57.652;11.968;2023-04-30T14:09:47;4.97;;;1.40;;
11006;SDS011;8186;57.652;11.968;2023-04-30T14:12:14;4.20;;;1.43;;
11006;SDS011;8186;57.652;11.968;2023-04-30T14:14:41;5.03;;;1.93;;
11006;SDS011;8186;57.652;11.968;2023-04-30T14:17:09;2.63;;;0.93;;
11006;SDS011;8186;57.652;11.968;2023-04-30T14:19:36;3.43;;;1.10;;
11006;SDS011;8186;57.652;11.968;2023-04-30T14:22:03;3.83;;;1.00;;
11006;SDS011;8186;57.652;11.968;2023-04-30T14:24:30;2.17;;;1.20;;
11006;SDS011;8186;57.652;11.968;2023-04-30T14:26:57;5.07;;;1.50;;
11006;SDS011;8186;57.652;11.968;2023-04-30T14:29:25;3.87;;;1.13;;
11006;SDS011;8186;57.652;11.968;2023-04-30T14:31:52;4.43;;;1.40;;
11006;SDS011;8186;57.652;11.968;2023-04-30T14:34:21;4.80;;;1.60;;
11006;SDS011;8186;57.652;11.968;2023-04-30T14:36:48;6.33;;;1.07;;
11006;SDS011;8186;57.652;11.968;2023-04-30T14:39:15;3.60;;;1.50;;
11006;SDS011;8186;57.652;11.968;2023-04-30T14:41:43;5.60;;;1.33;;
11006;SDS011;8186;57.652;11.968;2023-04-30T14:44:10;2.60;;;1.10;;
11006;SDS011;8186;57.652;11.968;2023-04-30T14:46:36;4.80;;;1.53;;
11006;SDS011;8186;57.652;11.968;2023-04-30T14:49:03;3.97;;;1.30;;
11006;SDS011;8186;57.652;11.968;2023-04-30T14:51:32;2.73;;;1.40;;
11006;SDS011;8186;57.652;11.968;2023-04-30T14:53:59;2.30;;;1.10;;
11006;SDS011;8186;57.652;11.968;2023-04-30T14:56:26;6.17;;;1.47;;
11006;SDS011;8186;57.652;11.968;2023-04-30T14:58:53;5.10;;;1.27;;
11006;SDS011;8186;57.652;11.968;2023-04-30T15:01:20;6.53;;;2.57;;
11006;SDS011;8186;57.652;11.968;2023-04-30T15:03:47;3.53;;;2.40;;